createdAt,value
2018-04-25T00:00:18.932Z,0
2018-04-25T00:01:26.995Z,0
2018-04-25T00:02:35.027Z,0
2018-04-25T00:03:43.109Z,0
2018-04-25T00:04:51.177Z,0
2018-04-25T00:05:59.231Z,0
2018-04-25T00:07:07.292Z,0
2018-04-25T00:08:15.329Z,0
2018-04-25T00:09:23.413Z,0
2018-04-25T00:10:31.500Z,0
2018-04-25T00:11:39.541Z,0
2018-04-25T00:12:47.590Z,0
2018-04-25T00:13:55.646Z,0
2018-04-25T00:15:03.714Z,0
2018-04-25T00:16:11.774Z,0
2018-04-25T00:17:19.832Z,0
2018-04-25T00:18:27.901Z,0
2018-04-25T00:19:35.963Z,0
2018-04-25T00:20:44.018Z,0
2018-04-25T00:21:52.083Z,0
2018-04-25T00:23:00.129Z,0
2018-04-25T00:24:08.199Z,0
2018-04-25T00:25:16.256Z,0
2018-04-25T00:26:24.329Z,0
2018-04-25T00:27:32.375Z,0
2018-04-25T00:28:40.444Z,0
2018-04-25T00:29:48.507Z,0
2018-04-25T00:30:56.565Z,0
2018-04-25T00:32:04.610Z,0
2018-04-25T00:33:12.679Z,0
2018-04-25T00:34:20.748Z,0
2018-04-25T00:35:28.804Z,0
2018-04-25T00:36:36.857Z,0
2018-04-25T00:37:44.889Z,0
2018-04-25T00:38:52.991Z,0
2018-04-25T00:40:01.037Z,0
2018-04-25T00:41:09.120Z,0
2018-04-25T00:42:17.154Z,0
2018-04-25T00:43:25.199Z,0
2018-04-25T00:44:33.309Z,0
2018-04-25T00:45:41.428Z,0
2018-04-25T00:46:49.409Z,0
2018-04-25T00:47:57.464Z,0
2018-04-25T00:49:05.500Z,0
2018-04-25T00:50:13.580Z,0
2018-04-25T00:51:21.631Z,0
2018-04-25T00:52:29.690Z,0
2018-04-25T00:53:37.759Z,0
2018-04-25T00:54:45.829Z,0
2018-04-25T00:55:53.872Z,0
2018-04-25T00:57:01.927Z,0
2018-04-25T00:58:09.996Z,0
2018-04-25T00:59:18.054Z,0
2018-04-25T01:00:26.115Z,0
2018-04-25T01:01:34.177Z,0
2018-04-25T01:02:42.245Z,0
2018-04-25T01:03:50.303Z,0
2018-04-25T01:04:58.355Z,0
2018-04-25T01:06:06.428Z,0
2018-04-25T01:07:14.472Z,0
2018-04-25T01:08:22.550Z,0
2018-04-25T01:09:30.631Z,0
2018-04-25T01:10:38.654Z,0
2018-04-25T01:11:46.724Z,0
2018-04-25T01:12:54.746Z,0
2018-04-25T01:14:02.829Z,0
2018-04-25T01:15:10.890Z,0
2018-04-25T01:16:18.951Z,0
2018-04-25T01:17:27.009Z,0
2018-04-25T01:18:35.085Z,0
2018-04-25T01:19:43.144Z,0
2018-04-25T01:20:51.222Z,0
2018-04-25T01:21:59.263Z,0
2018-04-25T01:23:07.318Z,0
2018-04-25T01:24:15.359Z,0
2018-04-25T01:25:23.446Z,0
2018-04-25T01:26:31.510Z,0
2018-04-25T01:27:39.563Z,0
2018-04-25T01:28:47.621Z,0
2018-04-25T01:29:55.671Z,0
2018-04-25T01:31:03.746Z,0
2018-04-25T01:32:11.801Z,0
2018-04-25T01:33:19.857Z,0
2018-04-25T01:34:27.925Z,0
2018-04-25T01:35:35.963Z,0
2018-04-25T01:36:44.040Z,0
2018-04-25T01:37:52.116Z,0
2018-04-25T01:39:00.162Z,0
2018-04-25T01:40:08.220Z,0
2018-04-25T01:41:16.275Z,0
2018-04-25T01:42:24.345Z,0
2018-04-25T01:43:32.391Z,0
2018-04-25T01:44:40.450Z,0
2018-04-25T01:45:48.519Z,0
2018-04-25T01:46:56.602Z,0
2018-04-25T01:48:04.620Z,0
2018-04-25T01:49:12.698Z,0
2018-04-25T01:50:20.759Z,0
2018-04-25T01:51:28.823Z,0
2018-04-25T01:52:36.871Z,0
2018-04-25T01:53:44.903Z,0
2018-04-25T01:54:52.996Z,0
2018-04-25T01:56:01.052Z,0
2018-04-25T01:57:09.123Z,0
2018-04-25T01:58:17.175Z,0
2018-04-25T01:59:25.210Z,0
2018-04-25T02:00:33.299Z,0
2018-04-25T02:01:41.354Z,0
2018-04-25T02:02:49.432Z,0
2018-04-25T02:03:57.479Z,0
2018-04-25T02:05:05.525Z,0
2018-04-25T02:06:13.589Z,0
2018-04-25T02:07:21.649Z,0
2018-04-25T02:08:29.722Z,0
2018-04-25T02:09:37.784Z,0
2018-04-25T02:10:45.846Z,0
2018-04-25T02:11:53.895Z,0
2018-04-25T02:13:01.953Z,0
2018-04-25T02:14:10.029Z,0
2018-04-25T02:15:18.092Z,0
2018-04-25T02:16:26.149Z,0
2018-04-25T02:17:34.192Z,0
2018-04-25T02:18:42.264Z,0
2018-04-25T02:19:50.327Z,0
2018-04-25T02:20:58.380Z,0
2018-04-25T02:22:06.438Z,0
2018-04-25T02:23:14.496Z,0
2018-04-25T02:24:22.552Z,0
2018-04-25T02:25:30.626Z,0
2018-04-25T02:26:38.678Z,0
2018-04-25T02:27:46.743Z,0
2018-04-25T02:28:54.770Z,0
2018-04-25T02:30:02.864Z,0
2018-04-25T02:31:10.919Z,0
2018-04-25T02:32:18.983Z,0
2018-04-25T02:33:27.051Z,0
2018-04-25T02:34:35.066Z,0
2018-04-25T02:35:43.167Z,0
2018-04-25T02:36:51.225Z,0
2018-04-25T02:37:59.281Z,0
2018-04-25T02:39:07.335Z,0
2018-04-25T02:40:15.370Z,0
2018-04-25T02:41:23.446Z,0
2018-04-25T02:42:31.504Z,0
2018-04-25T02:43:39.584Z,0
2018-04-25T02:44:47.629Z,0
2018-04-25T02:45:55.689Z,0
2018-04-25T02:47:03.769Z,0
2018-04-25T02:48:11.812Z,0
2018-04-25T02:49:19.890Z,0
2018-04-25T02:50:27.933Z,0
2018-04-25T02:51:35.991Z,0
2018-04-25T02:52:44.051Z,0
2018-04-25T02:53:52.109Z,0
2018-04-25T02:55:00.157Z,0
2018-04-25T02:56:08.236Z,0
2018-04-25T02:57:16.291Z,0
2018-04-25T02:58:24.343Z,0
2018-04-25T02:59:32.407Z,0
2018-04-25T03:00:40.474Z,0
2018-04-25T03:01:48.520Z,0
2018-04-25T03:02:56.580Z,0
2018-04-25T03:04:04.629Z,0
2018-04-25T03:05:12.697Z,0
2018-04-25T03:06:20.757Z,0
2018-04-25T03:07:28.817Z,0
2018-04-25T03:08:36.879Z,0
2018-04-25T03:09:44.914Z,0
2018-04-25T03:10:52.997Z,0
2018-04-25T03:12:01.060Z,0
2018-04-25T03:13:09.116Z,0
2018-04-25T03:14:17.178Z,0
2018-04-25T03:15:25.206Z,0
2018-04-25T03:16:33.311Z,0
2018-04-25T03:17:41.352Z,0
2018-04-25T03:18:49.409Z,0
2018-04-25T03:19:57.460Z,0
2018-04-25T03:21:05.516Z,0
2018-04-25T03:22:13.583Z,0
2018-04-25T03:23:21.657Z,0
2018-04-25T03:24:29.706Z,0
2018-04-25T03:25:37.772Z,0
2018-04-25T03:26:45.818Z,0
2018-04-25T03:27:53.870Z,0
2018-04-25T03:29:01.926Z,0
2018-04-25T03:30:10.001Z,0
2018-04-25T03:31:18.052Z,0
2018-04-25T03:32:26.121Z,0
2018-04-25T03:33:34.184Z,0
2018-04-25T03:34:42.236Z,0
2018-04-25T03:35:50.291Z,0
2018-04-25T03:36:58.355Z,0
2018-04-25T03:38:06.406Z,0
2018-04-25T03:39:14.467Z,0
2018-04-25T03:40:22.537Z,0
2018-04-25T03:41:30.585Z,0
2018-04-25T03:42:38.647Z,0
2018-04-25T03:43:46.705Z,0
2018-04-25T03:44:54.744Z,0
2018-04-25T03:46:02.831Z,4
2018-04-25T03:47:10.885Z,4
2018-04-25T03:48:18.941Z,4
2018-04-25T03:49:27.002Z,4
2018-04-25T03:50:35.035Z,4
2018-04-25T03:51:43.113Z,4
2018-04-25T03:52:51.180Z,8
2018-04-25T03:53:59.243Z,8
2018-04-25T03:55:07.297Z,12
2018-04-25T03:56:15.326Z,12
2018-04-25T03:57:23.426Z,16
2018-04-25T03:58:31.490Z,20
2018-04-25T03:59:39.533Z,20
2018-04-25T04:00:47.599Z,28
2018-04-25T04:01:55.644Z,32
2018-04-25T04:03:03.719Z,40
2018-04-25T04:04:12.315Z,48
2018-04-25T04:05:19.826Z,56
2018-04-25T04:06:27.889Z,64
2018-04-25T04:07:35.951Z,76
2018-04-25T04:08:44.281Z,84
2018-04-25T04:09:52.692Z,100
2018-04-25T04:11:00.434Z,116
2018-04-25T04:12:08.176Z,132
2018-04-25T04:13:16.237Z,152
2018-04-25T04:14:24.295Z,172
2018-04-25T04:15:32.368Z,196
2018-04-25T04:16:40.416Z,224
2018-04-25T04:17:48.506Z,252
2018-04-25T04:18:56.545Z,280
2018-04-25T04:20:04.819Z,312
2018-04-25T04:21:12.663Z,344
2018-04-25T04:22:20.725Z,380
2018-04-25T04:23:28.773Z,416
2018-04-25T04:24:37.445Z,456
2018-04-25T04:25:45.086Z,500
2018-04-25T04:26:52.949Z,540
2018-04-25T04:28:01.005Z,580
2018-04-25T04:29:09.076Z,624
2018-04-25T04:30:17.134Z,672
2018-04-25T04:31:25.158Z,716
2018-04-25T04:32:33.441Z,764
2018-04-25T04:33:41.310Z,816
2018-04-25T04:34:49.366Z,864
2018-04-25T04:35:58.050Z,924
2018-04-25T04:37:06.156Z,980
2018-04-25T04:38:14.216Z,1040
2018-04-25T04:39:22.176Z,1092
2018-04-25T04:40:30.290Z,1148
2018-04-25T04:41:38.364Z,1208
2018-04-25T04:42:46.446Z,1276
2018-04-25T04:43:54.250Z,1344
2018-04-25T04:45:02.276Z,1408
2018-04-25T04:46:10.522Z,1480
2018-04-25T04:47:18.657Z,1564
2018-04-25T04:48:26.580Z,1632
2018-04-25T04:49:34.758Z,1696
2018-04-25T04:50:42.596Z,1788
2018-04-25T04:51:51.792Z,1880
2018-04-25T04:52:58.989Z,1952
2018-04-25T04:54:06.946Z,2008
2018-04-25T04:55:15.089Z,2064
2018-04-25T04:56:23.071Z,2108
2018-04-25T04:57:31.239Z,2176
2018-04-25T04:58:39.291Z,2232
2018-04-25T04:59:47.395Z,2292
2018-04-25T05:00:55.383Z,2364
2018-04-25T05:02:03.472Z,2468
2018-04-25T05:03:11.424Z,2572
2018-04-25T05:04:19.562Z,2644
2018-04-25T05:05:27.657Z,2692
2018-04-25T05:06:35.634Z,2764
2018-04-25T05:07:43.533Z,2800
2018-04-25T05:08:51.773Z,2876
2018-04-25T05:09:59.879Z,3000
2018-04-25T05:11:07.856Z,3064
2018-04-25T05:12:15.801Z,3112
2018-04-25T05:13:24.052Z,3164
2018-04-25T05:14:33.231Z,3220
2018-04-25T05:15:40.148Z,3280
2018-04-25T05:16:48.202Z,3376
2018-04-25T05:17:56.248Z,3460
2018-04-25T05:19:04.319Z,3512
2018-04-25T05:20:12.393Z,3524
2018-04-25T05:21:20.335Z,3532
2018-04-25T05:22:28.434Z,3616
2018-04-25T05:23:36.584Z,3688
2018-04-25T05:24:44.778Z,3680
2018-04-25T05:25:52.628Z,3728
2018-04-25T05:27:00.699Z,3776
2018-04-25T05:28:08.797Z,3840
2018-04-25T05:29:16.889Z,3972
2018-04-25T05:30:24.911Z,4072
2018-04-25T05:31:32.987Z,4228
2018-04-25T05:32:40.980Z,4000
2018-04-25T05:33:49.114Z,4024
2018-04-25T05:34:57.163Z,4088
2018-04-25T05:36:05.212Z,4156
2018-04-25T05:37:13.285Z,4260
2018-04-25T05:38:21.229Z,4224
2018-04-25T05:39:29.306Z,4196
2018-04-25T05:40:37.421Z,4176
2018-04-25T05:41:45.358Z,4200
2018-04-25T05:42:53.617Z,4292
2018-04-25T05:44:01.655Z,4420
2018-04-25T05:45:09.754Z,4488
2018-04-25T05:46:17.631Z,4524
2018-04-25T05:47:25.725Z,4628
2018-04-25T05:48:33.873Z,4932
2018-04-25T05:49:41.617Z,5332
2018-04-25T05:50:49.905Z,5428
2018-04-25T05:51:57.428Z,5356
2018-04-25T05:53:05.478Z,5180
2018-04-25T05:54:13.549Z,5144
2018-04-25T05:55:21.613Z,5212
2018-04-25T05:56:29.674Z,5264
2018-04-25T05:57:37.763Z,5364
2018-04-25T05:58:45.791Z,5476
2018-04-25T05:59:53.865Z,5568
2018-04-25T06:01:01.937Z,5664
2018-04-25T06:02:09.988Z,7224
2018-04-25T06:03:18.042Z,8060
2018-04-25T06:04:26.110Z,7132
2018-04-25T06:05:34.157Z,6660
2018-04-25T06:06:42.231Z,8020
2018-04-25T06:07:50.285Z,7916
2018-04-25T06:08:58.342Z,10248
2018-04-25T06:10:06.410Z,15384
2018-04-25T06:11:14.482Z,13864
2018-04-25T06:12:22.563Z,8684
2018-04-25T06:13:30.912Z,8564
2018-04-25T06:14:38.660Z,7264
2018-04-25T06:15:46.732Z,7140
2018-04-25T06:16:54.770Z,7372
2018-04-25T06:18:02.855Z,9776
2018-04-25T06:19:10.913Z,15212
2018-04-25T06:20:19.032Z,11616
2018-04-25T06:21:27.048Z,7960
2018-04-25T06:22:35.084Z,10092
2018-04-25T06:23:43.170Z,9656
2018-04-25T06:24:51.234Z,7500
2018-04-25T06:25:59.295Z,7664
2018-04-25T06:27:07.368Z,6884
2018-04-25T06:28:15.419Z,7032
2018-04-25T06:29:23.496Z,6956
2018-04-25T06:30:31.555Z,7524
2018-04-25T06:31:39.630Z,8848
2018-04-25T06:32:47.695Z,10164
2018-04-25T06:33:55.754Z,12360
2018-04-25T06:35:03.815Z,10432
2018-04-25T06:36:11.885Z,8148
2018-04-25T06:37:19.941Z,7392
2018-04-25T06:38:27.988Z,7600
2018-04-25T06:39:36.068Z,7784
2018-04-25T06:40:44.128Z,10312
2018-04-25T06:41:52.193Z,9152
2018-04-25T06:43:00.244Z,7504
2018-04-25T06:44:08.321Z,9608
2018-04-25T06:45:16.386Z,10832
2018-04-25T06:46:24.454Z,7776
2018-04-25T06:47:32.523Z,7480
2018-04-25T06:48:40.604Z,6956
2018-04-25T06:49:48.647Z,7156
2018-04-25T06:50:56.723Z,7528
2018-04-25T06:52:04.749Z,10620
2018-04-25T06:53:12.838Z,11796
2018-04-25T06:54:20.954Z,7732
2018-04-25T06:55:28.958Z,7124
2018-04-25T06:56:37.030Z,6884
2018-04-25T06:57:45.077Z,6680
2018-04-25T06:58:53.157Z,6620
2018-04-25T07:00:01.226Z,6540
2018-04-25T07:01:09.293Z,6912
2018-04-25T07:02:17.364Z,10624
2018-04-25T07:03:25.413Z,8608
2018-04-25T07:04:33.498Z,7556
2018-04-25T07:05:41.638Z,11040
2018-04-25T07:06:49.621Z,11728
2018-04-25T07:07:57.761Z,7836
2018-04-25T07:09:05.759Z,7524
2018-04-25T07:10:13.824Z,7716
2018-04-25T07:11:21.871Z,7756
2018-04-25T07:12:29.938Z,7604
2018-04-25T07:13:38.024Z,7460
2018-04-25T07:14:46.075Z,7704
2018-04-25T07:15:54.126Z,7864
2018-04-25T07:17:02.213Z,10008
2018-04-25T07:18:10.277Z,14648
2018-04-25T07:19:18.335Z,19040
2018-04-25T07:20:26.403Z,17984
2018-04-25T07:21:34.450Z,15632
2018-04-25T07:22:42.538Z,16552
2018-04-25T07:23:50.624Z,21888
2018-04-25T07:24:58.658Z,33504
2018-04-25T07:26:06.749Z,55072
2018-04-25T07:27:14.773Z,57120
2018-04-25T07:28:22.864Z,26720
2018-04-25T07:29:30.981Z,9116
2018-04-25T07:30:39.005Z,9168
2018-04-25T07:31:47.102Z,15088
2018-04-25T07:32:55.124Z,32928
2018-04-25T07:34:03.209Z,25024
2018-04-25T07:35:11.269Z,15660
2018-04-25T07:36:19.328Z,14588
2018-04-25T07:37:27.400Z,11216
2018-04-25T07:38:35.456Z,11140
2018-04-25T07:39:43.532Z,10280
2018-04-25T07:40:51.630Z,12608
2018-04-25T07:41:59.753Z,19648
2018-04-25T07:43:07.749Z,23648
2018-04-25T07:44:15.831Z,24032
2018-04-25T07:45:23.905Z,23296
2018-04-25T07:46:31.952Z,21344
2018-04-25T07:47:40.024Z,30016
2018-04-25T07:48:48.118Z,29920
2018-04-25T07:49:56.153Z,32064
2018-04-25T07:51:04.237Z,45856
2018-04-25T07:52:12.350Z,55488
2018-04-25T07:53:20.374Z,57664
2018-04-25T07:54:28.446Z,53984
2018-04-25T07:55:36.519Z,51264
2018-04-25T07:56:44.566Z,48352
2018-04-25T07:57:52.650Z,53152
2018-04-25T07:59:00.718Z,60320
2018-04-25T08:00:08.800Z,58720
2018-04-25T08:01:16.895Z,56032
2018-04-25T08:02:24.928Z,53728
2018-04-25T08:03:33.016Z,53504
2018-04-25T08:04:41.097Z,54464
2018-04-25T08:05:49.167Z,56640
2018-04-25T08:06:57.238Z,57056
2018-04-25T08:08:05.286Z,63584
2018-04-25T08:09:13.399Z,63680
2018-04-25T08:10:21.465Z,61280
2018-04-25T08:11:29.528Z,64128
2018-04-25T08:12:37.615Z,66592
2018-04-25T08:13:45.694Z,65056
2018-04-25T08:14:53.764Z,62720
2018-04-25T08:16:01.858Z,60864
2018-04-25T08:17:09.913Z,55328
2018-04-25T08:18:17.995Z,60160
2018-04-25T08:19:26.069Z,58272
2018-04-25T08:20:34.141Z,56288
2018-04-25T08:21:42.230Z,58816
2018-04-25T08:22:50.302Z,58080
2018-04-25T08:23:58.377Z,59552
2018-04-25T08:25:06.471Z,60672
2018-04-25T08:26:14.530Z,59776
2018-04-25T08:27:22.628Z,62336
2018-04-25T08:28:30.693Z,60928
2018-04-25T08:29:38.772Z,62464
2018-04-25T08:30:46.838Z,65856
2018-04-25T08:31:54.890Z,69824
2018-04-25T08:33:03.014Z,67680
2018-04-25T08:34:11.123Z,67456
2018-04-25T08:35:19.169Z,62048
2018-04-25T08:36:27.247Z,56256
2018-04-25T08:37:35.294Z,60096
2018-04-25T08:38:43.388Z,63616
2018-04-25T08:39:51.482Z,63968
2018-04-25T08:40:59.552Z,70176
2018-04-25T08:42:07.621Z,59328
2018-04-25T08:43:15.725Z,78848
2018-04-25T08:44:23.785Z,67968
2018-04-25T08:45:31.899Z,68320
2018-04-25T08:46:39.933Z,16564
2018-04-25T08:47:48.041Z,69120
2018-04-25T08:48:56.107Z,70336
2018-04-25T08:50:04.177Z,68288
2018-04-25T08:51:12.279Z,17032
2018-04-25T08:52:20.345Z,71136
2018-04-25T08:53:28.425Z,76864
2018-04-25T08:54:36.488Z,80064
2018-04-25T08:55:44.573Z,76768
2018-04-25T08:56:52.652Z,73024
2018-04-25T08:58:00.737Z,14116
2018-04-25T08:59:08.822Z,13692
2018-04-25T09:00:16.951Z,10856
2018-04-25T09:01:24.938Z,9904
2018-04-25T09:02:33.047Z,9708
2018-04-25T09:03:41.124Z,11012
2018-04-25T09:04:49.191Z,13644
2018-04-25T09:05:57.268Z,9976
2018-04-25T09:07:05.314Z,11176
2018-04-25T09:08:13.420Z,10160
2018-04-25T09:09:21.492Z,11792
2018-04-25T09:10:29.566Z,11656
2018-04-25T09:11:37.645Z,10632
2018-04-25T09:12:45.714Z,13896
2018-04-25T09:13:53.776Z,11408
2018-04-25T09:15:01.862Z,8996
2018-04-25T09:16:09.931Z,7988
2018-04-25T09:17:18.016Z,8900
2018-04-25T09:18:26.085Z,11560
2018-04-25T09:19:34.148Z,9180
2018-04-25T09:20:42.225Z,9100
2018-04-25T09:21:50.301Z,8468
2018-04-25T09:22:58.370Z,7784
2018-04-25T09:24:06.433Z,10428
2018-04-25T09:25:14.519Z,10464
2018-04-25T09:26:22.582Z,11564
2018-04-25T09:27:30.656Z,9472
2018-04-25T09:28:38.713Z,8664
2018-04-25T09:29:46.794Z,11428
2018-04-25T09:30:54.851Z,11360
2018-04-25T09:32:02.936Z,11172
2018-04-25T09:33:11.008Z,8624
2018-04-25T09:34:19.086Z,7384
2018-04-25T09:35:27.155Z,8344
2018-04-25T09:36:35.194Z,8228
2018-04-25T09:37:43.286Z,7580
2018-04-25T09:38:51.355Z,7876
2018-04-25T09:39:59.428Z,8956
2018-04-25T09:41:07.501Z,8216
2018-04-25T09:42:15.565Z,9360
2018-04-25T09:43:23.647Z,7692
2018-04-25T09:44:31.720Z,8692
2018-04-25T09:45:39.784Z,8396
2018-04-25T09:46:47.879Z,7708
2018-04-25T09:47:55.920Z,7536
2018-04-25T09:49:04.001Z,8508
2018-04-25T09:50:12.052Z,8572
2018-04-25T09:51:20.130Z,8272
2018-04-25T09:52:28.219Z,9492
2018-04-25T09:53:36.283Z,10312
2018-04-25T09:54:44.330Z,9444
2018-04-25T09:55:52.423Z,7520
2018-04-25T09:57:00.465Z,8712
2018-04-25T09:58:08.677Z,9576
2018-04-25T09:59:16.621Z,7756
2018-04-25T10:00:24.686Z,7912
2018-04-25T10:01:32.771Z,10948
2018-04-25T10:02:40.843Z,10664
2018-04-25T10:03:48.914Z,13000
2018-04-25T10:04:56.976Z,10736
2018-04-25T10:06:05.018Z,12152
2018-04-25T10:07:13.109Z,10540
2018-04-25T10:08:21.187Z,11408
2018-04-25T10:09:29.258Z,7912
2018-04-25T10:10:37.371Z,9932
2018-04-25T10:11:45.375Z,9168
2018-04-25T10:12:53.468Z,8872
2018-04-25T10:14:01.532Z,10468
2018-04-25T10:15:09.674Z,9448
2018-04-25T10:16:17.676Z,9924
2018-04-25T10:17:25.761Z,8896
2018-04-25T10:18:33.815Z,10380
2018-04-25T10:19:41.893Z,11652
2018-04-25T10:20:49.953Z,12372
2018-04-25T10:21:58.024Z,11484
2018-04-25T10:23:06.104Z,7864
2018-04-25T10:24:14.186Z,9640
2018-04-25T10:25:22.234Z,7552
2018-04-25T10:26:30.299Z,6488
2018-04-25T10:27:38.383Z,9128
2018-04-25T10:28:46.439Z,10156
2018-04-25T10:29:54.512Z,11100
2018-04-25T10:31:02.594Z,10460
2018-04-25T10:32:10.656Z,8308
2018-04-25T10:33:18.723Z,7412
2018-04-25T10:34:26.796Z,6980
2018-04-25T10:35:34.838Z,6764
2018-04-25T10:36:42.941Z,6920
2018-04-25T10:37:51.004Z,9000
2018-04-25T10:38:59.164Z,5700
2018-04-25T10:40:07.161Z,7784
2018-04-25T10:41:15.178Z,7860
2018-04-25T10:42:23.291Z,7900
2018-04-25T10:43:31.350Z,9352
2018-04-25T10:44:39.417Z,7076
2018-04-25T10:45:47.488Z,5280
2018-04-25T10:46:55.570Z,7280
2018-04-25T10:48:03.631Z,6028
2018-04-25T10:49:11.702Z,5648
2018-04-25T10:50:19.778Z,6320
2018-04-25T10:51:27.836Z,9552
2018-04-25T10:52:35.902Z,6672
2018-04-25T10:53:43.979Z,5764
2018-04-25T10:54:52.042Z,4924
2018-04-25T10:56:00.122Z,6352
2018-04-25T10:57:08.182Z,5540
2018-04-25T10:58:16.242Z,5980
2018-04-25T10:59:24.307Z,5752
2018-04-25T11:00:32.395Z,5572
2018-04-25T11:01:40.477Z,5520
2018-04-25T11:02:48.532Z,5412
2018-04-25T11:03:56.598Z,5424
2018-04-25T11:05:04.666Z,5468
2018-04-25T11:06:12.763Z,5392
2018-04-25T11:07:20.872Z,5616
2018-04-25T11:08:28.880Z,5652
2018-04-25T11:09:36.926Z,5716
2018-04-25T11:10:44.989Z,5688
2018-04-25T11:11:53.094Z,5560
2018-04-25T11:13:01.158Z,5800
2018-04-25T11:14:09.219Z,5424
2018-04-25T11:15:17.289Z,4644
2018-04-25T11:16:25.344Z,6064
2018-04-25T11:17:33.431Z,6236
2018-04-25T11:18:41.506Z,5836
2018-04-25T11:19:49.567Z,4456
2018-04-25T11:20:57.627Z,5628
2018-04-25T11:22:05.690Z,5276
2018-04-25T11:23:13.764Z,4388
2018-04-25T11:24:21.829Z,5612
2018-04-25T11:25:29.928Z,5488
2018-04-25T11:26:38.078Z,5784
2018-04-25T11:27:46.038Z,5712
2018-04-25T11:28:54.119Z,6624
2018-04-25T11:30:02.217Z,5972
2018-04-25T11:31:10.267Z,5656
2018-04-25T11:32:18.325Z,5388
2018-04-25T11:33:26.402Z,5360
2018-04-25T11:34:34.455Z,4624
2018-04-25T11:35:42.529Z,5736
2018-04-25T11:36:50.596Z,4396
2018-04-25T11:37:58.674Z,5556
2018-04-25T11:39:06.743Z,5224
2018-04-25T11:40:14.773Z,6700
2018-04-25T11:41:22.868Z,6588
2018-04-25T11:42:30.938Z,8092
2018-04-25T11:43:39.006Z,6388
2018-04-25T11:44:47.072Z,5952
2018-04-25T11:45:55.109Z,8724
2018-04-25T11:47:03.252Z,8172
2018-04-25T11:48:14.861Z,9872
2018-04-25T11:49:19.378Z,10332
2018-04-25T11:50:27.418Z,9856
2018-04-25T11:51:35.479Z,8336
2018-04-25T11:52:43.560Z,12396
2018-04-25T11:53:51.621Z,11864
2018-04-25T11:54:59.708Z,14364
2018-04-25T11:56:07.760Z,15008
2018-04-25T11:57:15.823Z,15272
2018-04-25T11:58:23.905Z,13656
2018-04-25T11:59:31.971Z,13812
2018-04-25T12:00:40.043Z,13088
2018-04-25T12:01:48.112Z,9888
2018-04-25T12:02:56.336Z,9764
2018-04-25T12:04:04.248Z,10876
2018-04-25T12:05:12.327Z,11156
2018-04-25T12:06:20.386Z,13840
2018-04-25T12:07:28.476Z,11252
2018-04-25T12:08:36.552Z,10512
2018-04-25T12:09:44.581Z,9148
2018-04-25T12:10:52.670Z,9984
2018-04-25T12:12:00.730Z,10468
2018-04-25T12:13:08.845Z,12748
2018-04-25T12:14:16.870Z,11420
2018-04-25T12:15:24.919Z,11916
2018-04-25T12:16:33.010Z,13300
2018-04-25T12:17:41.090Z,13320
2018-04-25T12:18:49.192Z,12432
2018-04-25T12:19:57.225Z,13232
2018-04-25T12:21:05.259Z,11856
2018-04-25T12:22:13.391Z,9176
2018-04-25T12:23:21.417Z,9684
2018-04-25T12:24:29.507Z,11416
2018-04-25T12:25:37.567Z,14488
2018-04-25T12:26:45.627Z,12456
2018-04-25T12:27:53.711Z,11400
2018-04-25T12:29:01.767Z,12132
2018-04-25T12:30:09.839Z,10464
2018-04-25T12:31:17.904Z,9280
2018-04-25T12:32:25.984Z,10540
2018-04-25T12:33:34.050Z,10852
2018-04-25T12:34:42.127Z,11192
2018-04-25T12:35:50.222Z,10176
2018-04-25T12:36:58.257Z,11732
2018-04-25T12:38:06.330Z,13200
2018-04-25T12:39:14.382Z,12248
2018-04-25T12:40:22.461Z,10280
2018-04-25T12:41:30.602Z,11260
2018-04-25T12:42:38.611Z,13704
2018-04-25T12:43:46.666Z,13992
2018-04-25T12:44:54.725Z,11056
2018-04-25T12:46:02.804Z,12424
2018-04-25T12:47:10.950Z,12824
2018-04-25T12:48:18.956Z,12240
2018-04-25T12:49:27.026Z,12296
2018-04-25T12:50:35.058Z,12532
2018-04-25T12:51:43.162Z,10644
2018-04-25T12:52:51.228Z,10344
2018-04-25T12:53:59.335Z,8876
2018-04-25T12:55:07.369Z,7052
2018-04-25T12:56:15.413Z,6180
2018-04-25T12:57:23.516Z,6296
2018-04-25T12:58:31.576Z,9720
2018-04-25T12:59:39.643Z,11400
2018-04-25T13:00:47.726Z,10844
2018-04-25T13:01:55.782Z,8816
2018-04-25T13:03:03.874Z,9920
2018-04-25T13:04:11.914Z,10000
2018-04-25T13:05:20.008Z,9952
2018-04-25T13:06:28.058Z,10660
2018-04-25T13:07:36.128Z,13228
2018-04-25T13:08:44.200Z,11364
2018-04-25T13:09:52.266Z,10216
2018-04-25T13:11:00.337Z,8820
2018-04-25T13:12:08.407Z,7084
2018-04-25T13:13:16.479Z,7236
2018-04-25T13:14:24.545Z,10500
2018-04-25T13:15:32.612Z,11248
2018-04-25T13:16:40.681Z,9556
2018-04-25T13:17:48.747Z,9932
2018-04-25T13:18:56.820Z,10380
2018-04-25T13:20:04.858Z,11192
2018-04-25T13:21:12.963Z,11308
2018-04-25T13:22:21.032Z,9468
2018-04-25T13:23:29.099Z,9492
2018-04-25T13:24:37.171Z,10300
2018-04-25T13:25:45.220Z,10016
2018-04-25T13:26:53.313Z,8500
2018-04-25T13:28:01.381Z,10244
2018-04-25T13:29:09.453Z,11156
2018-04-25T13:30:17.523Z,9184
2018-04-25T13:31:25.579Z,10216
2018-04-25T13:32:33.661Z,10800
2018-04-25T13:33:41.728Z,9512
2018-04-25T13:34:49.803Z,9464
2018-04-25T13:35:57.873Z,8484
2018-04-25T13:37:05.932Z,7676
2018-04-25T13:38:14.001Z,7036
2018-04-25T13:39:22.086Z,6840
2018-04-25T13:40:30.153Z,6352
2018-04-25T13:41:38.231Z,6048
2018-04-25T13:42:46.289Z,6164
2018-04-25T13:43:54.357Z,5880
2018-04-25T13:45:02.424Z,6152
2018-04-25T13:46:10.501Z,6468
2018-04-25T13:47:18.578Z,6552
2018-04-25T13:48:26.626Z,6256
2018-04-25T13:49:34.707Z,6136
2018-04-25T13:50:42.760Z,6012
2018-04-25T13:51:50.831Z,6348
2018-04-25T13:52:58.906Z,6056
2018-04-25T13:54:06.971Z,5680
2018-04-25T13:55:15.029Z,5492
2018-04-25T13:56:23.120Z,5496
2018-04-25T13:57:31.188Z,5368
2018-04-25T13:58:39.260Z,5352
2018-04-25T13:59:47.321Z,5024
2018-04-25T14:00:55.394Z,5096
2018-04-25T14:02:03.454Z,5144
2018-04-25T14:03:11.529Z,5076
2018-04-25T14:04:19.605Z,4900
2018-04-25T14:05:27.671Z,4844
2018-04-25T14:06:35.765Z,5512
2018-04-25T14:07:43.796Z,5348
2018-04-25T14:08:51.874Z,4872
2018-04-25T14:09:59.940Z,4804
2018-04-25T14:11:08.004Z,5340
2018-04-25T14:12:16.073Z,5192
2018-04-25T14:13:24.159Z,5220
2018-04-25T14:14:32.222Z,5748
2018-04-25T14:15:40.310Z,4696
2018-04-25T14:16:48.358Z,4464
2018-04-25T14:17:56.434Z,4416
2018-04-25T14:19:04.492Z,4112
2018-04-25T14:20:12.570Z,4612
2018-04-25T14:21:20.624Z,4344
2018-04-25T14:22:28.711Z,4960
2018-04-25T14:23:36.756Z,4624
2018-04-25T14:24:44.862Z,4504
2018-04-25T14:25:52.920Z,4264
2018-04-25T14:27:01.000Z,4264
2018-04-25T14:28:09.042Z,3604
2018-04-25T14:29:17.117Z,3656
2018-04-25T14:30:25.210Z,4268
2018-04-25T14:31:33.252Z,4500
2018-04-25T14:32:41.332Z,4276
2018-04-25T14:33:49.399Z,3460
2018-04-25T14:34:57.470Z,3348
2018-04-25T14:36:05.534Z,4548
2018-04-25T14:37:13.594Z,5552
2018-04-25T14:38:21.655Z,5748
2018-04-25T14:39:29.724Z,5584
2018-04-25T14:40:37.800Z,5396
2018-04-25T14:41:45.896Z,4976
2018-04-25T14:42:53.945Z,5096
2018-04-25T14:44:02.010Z,5536
2018-04-25T14:45:10.083Z,4428
2018-04-25T14:46:18.143Z,5144
2018-04-25T14:47:26.215Z,4844
2018-04-25T14:48:34.286Z,4372
2018-04-25T14:49:42.352Z,4156
2018-04-25T14:50:50.422Z,3868
2018-04-25T14:51:58.487Z,3748
2018-04-25T14:53:06.564Z,3300
2018-04-25T14:54:14.617Z,3716
2018-04-25T14:55:22.695Z,3932
2018-04-25T14:56:30.748Z,4228
2018-04-25T14:57:38.829Z,3616
2018-04-25T14:58:46.886Z,5312
2018-04-25T14:59:54.928Z,5324
2018-04-25T15:01:03.027Z,6088
2018-04-25T15:02:11.094Z,5924
2018-04-25T15:03:19.147Z,6300
2018-04-25T15:04:27.233Z,6644
2018-04-25T15:05:35.272Z,8008
2018-04-25T15:06:43.372Z,7612
2018-04-25T15:07:51.446Z,7588
2018-04-25T15:08:59.501Z,7704
2018-04-25T15:10:07.567Z,7556
2018-04-25T15:11:15.630Z,6720
2018-04-25T15:12:23.707Z,7952
2018-04-25T15:13:31.775Z,7184
2018-04-25T15:14:39.850Z,5948
2018-04-25T15:15:47.924Z,4556
2018-04-25T15:16:55.981Z,5184
2018-04-25T15:18:04.052Z,5348
2018-04-25T15:19:12.121Z,7220
2018-04-25T15:20:20.187Z,7048
2018-04-25T15:21:28.288Z,8536
2018-04-25T15:22:36.314Z,9396
2018-04-25T15:23:44.389Z,5616